createdAt,value
2022-10-16T00:01:00.311Z,43.57
2022-10-16T00:03:30.371Z,43.75
2022-10-16T00:06:01.231Z,43.68
2022-10-16T00:08:29.804Z,43.65
2022-10-16T00:11:04.235Z,43.55
2022-10-16T00:13:33.124Z,43.56
2022-10-16T00:16:02.266Z,43.59
2022-10-16T00:18:31.059Z,43.52
2022-10-16T00:21:04.767Z,43.59
2022-10-16T00:23:33.065Z,43.62
2022-10-16T00:26:06.455Z,43.60
2022-10-16T00:28:34.958Z,43.60
2022-10-16T00:31:06.421Z,43.52
2022-10-16T00:33:34.493Z,43.65
2022-10-16T00:36:02.949Z,43.59
2022-10-16T00:38:30.957Z,43.63
2022-10-16T00:40:59.126Z,43.64
2022-10-16T00:43:41.729Z,43.65
2022-10-16T00:46:17.065Z,43.41
2022-10-16T00:48:50.780Z,43.43
2022-10-16T00:51:21.497Z,43.49
2022-10-16T00:53:50.282Z,43.38
2022-10-16T00:56:19.435Z,43.26
2022-10-16T00:58:48.993Z,43.45
2022-10-16T01:01:16.977Z,43.33
2022-10-16T01:03:44.950Z,43.37
2022-10-16T01:09:15.143Z,43.41
2022-10-16T01:11:50.988Z,43.40
2022-10-16T01:14:26.304Z,43.24
2022-10-16T01:17:01.223Z,43.34
2022-10-16T01:19:46.383Z,43.34
2022-10-16T01:22:15.937Z,43.27
2022-10-16T01:27:26.203Z,43.20
2022-10-16T01:29:58.190Z,43.22
2022-10-16T01:32:32.460Z,43.22
2022-10-16T01:35:07.211Z,43.23
2022-10-16T01:37:40.665Z,43.24
2022-10-16T01:40:12.387Z,43.15
2022-10-16T01:42:45.263Z,43.21
2022-10-16T01:45:19.093Z,43.12
2022-10-16T01:47:48.967Z,43.22
2022-10-16T01:50:20.080Z,43.12
2022-10-16T01:52:53.304Z,43.10
2022-10-16T01:55:26.487Z,43.22
2022-10-16T01:57:57.105Z,43.14
2022-10-16T02:00:26.776Z,43.08
2022-10-16T02:02:57.290Z,43.11
2022-10-16T02:05:33.206Z,43.11
2022-10-16T02:08:04.674Z,43.13
2022-10-16T02:10:34.282Z,43.01
2022-10-16T02:13:08.344Z,43.00
2022-10-16T02:15:36.333Z,43.05
2022-10-16T02:18:04.838Z,43.06
2022-10-16T02:20:39.012Z,42.80
2022-10-16T02:23:11.753Z,43.09
2022-10-16T02:25:43.756Z,42.95
2022-10-16T02:28:19.959Z,43.06
2022-10-16T02:30:53.288Z,43.12
2022-10-16T02:33:23.930Z,42.93
2022-10-16T02:35:53.260Z,43.14
2022-10-16T02:38:23.282Z,43.20
2022-10-16T02:40:51.655Z,43.21
2022-10-16T02:43:21.415Z,43.28
2022-10-16T02:45:49.294Z,43.21
2022-10-16T02:48:17.253Z,43.23
2022-10-16T02:50:45.122Z,43.24
2022-10-16T02:53:13.116Z,43.13
2022-10-16T02:55:41.033Z,43.12
2022-10-16T02:58:08.926Z,43.27
2022-10-16T03:00:38.178Z,43.17
2022-10-16T03:03:06.229Z,43.38
2022-10-16T03:05:34.097Z,43.20
2022-10-16T03:08:02.118Z,43.27
2022-10-16T03:10:30.108Z,43.22
2022-10-16T03:12:58.014Z,43.35
2022-10-16T03:15:26.922Z,43.37
2022-10-16T03:17:56.297Z,43.25
2022-10-16T03:20:24.181Z,43.47
2022-10-16T03:22:52.205Z,43.38
2022-10-16T03:25:20.382Z,43.50
2022-10-16T03:27:48.293Z,43.69
2022-10-16T03:30:16.397Z,43.59
2022-10-16T03:32:45.556Z,43.46
2022-10-16T03:35:14.985Z,43.56
2022-10-16T03:37:42.896Z,43.60
2022-10-16T03:40:11.553Z,43.67
2022-10-16T03:42:39.413Z,43.70
2022-10-16T03:45:08.333Z,43.58
2022-10-16T03:47:36.209Z,43.60
2022-10-16T03:50:04.961Z,43.73
2022-10-16T03:52:34.240Z,43.89
2022-10-16T03:55:02.145Z,43.77
2022-10-16T03:57:30.256Z,43.75
2022-10-16T03:59:58.287Z,43.80
2022-10-16T04:02:26.162Z,43.76
2022-10-16T04:04:54.044Z,43.73
2022-10-16T04:07:21.942Z,43.89
2022-10-16T04:09:53.107Z,43.70
2022-10-16T04:12:21.034Z,43.77
2022-10-16T04:14:48.899Z,43.92
2022-10-16T04:17:16.846Z,43.85
2022-10-16T04:19:44.718Z,43.94
2022-10-16T04:22:13.782Z,43.78
2022-10-16T04:24:42.116Z,43.72
2022-10-16T04:27:11.576Z,43.75
2022-10-16T04:29:39.484Z,43.81
2022-10-16T04:32:07.441Z,43.91
2022-10-16T04:34:35.617Z,43.93
2022-10-16T04:37:03.585Z,43.92
2022-10-16T04:39:31.437Z,43.86
2022-10-16T04:41:59.419Z,43.85
2022-10-16T04:44:28.675Z,43.99
2022-10-16T04:46:56.621Z,43.85
2022-10-16T04:49:24.529Z,43.94
2022-10-16T04:51:52.829Z,43.93
2022-10-16T04:54:20.730Z,44.00
2022-10-16T04:56:48.962Z,44.01
2022-10-16T04:59:17.034Z,43.94
2022-10-16T05:01:47.144Z,44.08
2022-10-16T05:04:16.032Z,43.98
2022-10-16T05:06:44.456Z,44.08
2022-10-16T05:09:12.408Z,44.05
2022-10-16T05:11:40.357Z,44.06
2022-10-16T05:14:08.309Z,43.92
2022-10-16T05:16:36.350Z,44.01
2022-10-16T05:19:26.341Z,44.02
2022-10-16T05:21:53.460Z,44.02
2022-10-16T05:24:21.324Z,43.99
2022-10-16T05:26:49.276Z,44.01
2022-10-16T05:29:17.232Z,44.26
2022-10-16T05:31:45.246Z,44.16
2022-10-16T05:34:14.737Z,44.25
2022-10-16T05:36:42.606Z,44.14
2022-10-16T05:39:10.496Z,44.40
2022-10-16T05:41:38.371Z,44.29
2022-10-16T05:44:07.587Z,44.32
2022-10-16T05:46:35.684Z,44.29
2022-10-16T05:49:03.822Z,44.33
2022-10-16T05:51:33.452Z,44.37
2022-10-16T05:54:01.376Z,44.39
2022-10-16T05:56:29.236Z,44.19
2022-10-16T05:58:57.175Z,44.31
2022-10-16T06:01:25.388Z,44.37
2022-10-16T06:03:54.379Z,44.42
2022-10-16T06:06:25.059Z,44.51
2022-10-16T06:08:55.434Z,44.39
2022-10-16T06:11:25.424Z,44.70
2022-10-16T06:13:54.502Z,44.51
2022-10-16T06:16:22.704Z,44.56
2022-10-16T06:18:53.181Z,44.47
2022-10-16T06:21:23.233Z,44.50
2022-10-16T06:23:51.127Z,44.53
2022-10-16T06:26:22.136Z,44.61
2022-10-16T06:28:50.252Z,44.58
2022-10-16T06:31:19.229Z,44.80
2022-10-16T06:33:47.994Z,44.82
2022-10-16T06:36:18.212Z,44.67
2022-10-16T06:38:46.898Z,45.00
2022-10-16T06:41:17.385Z,44.94
2022-10-16T06:43:47.107Z,44.79
2022-10-16T06:46:17.861Z,44.66
2022-10-16T06:48:46.045Z,44.89
2022-10-16T06:51:15.805Z,45.12
2022-10-16T06:54:01.943Z,44.98
2022-10-16T06:56:32.728Z,44.96
2022-10-16T06:59:02.497Z,45.00
2022-10-16T07:01:31.584Z,44.96
2022-10-16T07:03:59.608Z,45.05
2022-10-16T07:06:28.713Z,45.13
2022-10-16T07:08:56.672Z,44.92
2022-10-16T07:11:25.951Z,45.19
2022-10-16T07:13:56.159Z,45.05
2022-10-16T07:16:27.164Z,45.06
2022-10-16T07:18:59.564Z,45.31
2022-10-16T07:21:29.942Z,45.15
2022-10-16T07:23:59.623Z,44.98
2022-10-16T07:26:28.716Z,45.17
2022-10-16T07:28:56.741Z,44.97
2022-10-16T07:31:26.902Z,45.00
2022-10-16T07:33:55.880Z,45.25
2022-10-16T07:36:23.949Z,45.07
2022-10-16T07:38:54.196Z,45.08
2022-10-16T07:41:25.107Z,44.89
2022-10-16T07:43:55.407Z,45.29
2022-10-16T07:46:24.852Z,45.22
2022-10-16T07:48:54.411Z,45.24
2022-10-16T07:51:25.431Z,44.98
2022-10-16T07:53:54.281Z,45.04
2022-10-16T07:56:23.324Z,45.25
2022-10-16T07:58:52.051Z,45.20
2022-10-16T08:01:20.804Z,45.01
2022-10-16T08:03:51.286Z,45.09
2022-10-16T08:06:26.666Z,44.99
2022-10-16T08:08:56.436Z,45.18
2022-10-16T08:11:24.442Z,44.97
2022-10-16T08:13:52.369Z,44.96
2022-10-16T08:16:20.261Z,44.93
2022-10-16T08:18:48.472Z,44.93
2022-10-16T08:21:20.332Z,44.81
2022-10-16T08:23:54.985Z,44.82
2022-10-16T08:26:27.941Z,44.83
2022-10-16T08:28:56.185Z,44.92
2022-10-16T08:31:24.667Z,44.66
2022-10-16T08:33:53.399Z,44.83
2022-10-16T08:36:21.561Z,44.73
2022-10-16T08:38:54.513Z,44.86
2022-10-16T08:41:35.809Z,44.93
2022-10-16T08:44:26.866Z,44.71
2022-10-16T08:47:04.948Z,45.00
2022-10-16T08:49:33.549Z,44.84
2022-10-16T08:52:01.989Z,44.66
2022-10-16T08:54:38.594Z,44.88
2022-10-16T08:57:13.434Z,44.71
2022-10-16T08:59:41.393Z,44.82
2022-10-16T09:02:26.798Z,44.51
2022-10-16T09:05:23.748Z,44.45
2022-10-16T09:10:43.565Z,44.46
2022-10-16T09:13:21.278Z,44.40
2022-10-16T09:15:58.131Z,44.73
2022-10-16T09:18:32.991Z,44.60
2022-10-16T09:21:09.555Z,44.29
2022-10-16T09:23:39.389Z,44.85
2022-10-16T09:26:13.598Z,45.10
2022-10-16T09:28:41.978Z,45.76
2022-10-16T09:31:17.485Z,46.39
2022-10-16T09:33:47.418Z,46.60
2022-10-16T09:36:15.549Z,46.69
2022-10-16T09:38:43.580Z,46.41
2022-10-16T09:41:21.058Z,46.23
2022-10-16T09:43:54.184Z,46.19
2022-10-16T09:46:29.823Z,45.95
2022-10-16T09:48:59.788Z,45.34
2022-10-16T09:51:30.665Z,45.57
2022-10-16T09:54:01.844Z,45.42
2022-10-16T09:56:33.473Z,45.41
2022-10-16T09:59:03.273Z,45.25
2022-10-16T10:01:38.530Z,45.26
2022-10-16T10:04:07.272Z,45.10
2022-10-16T10:06:39.043Z,44.79
2022-10-16T10:09:16.593Z,44.73
2022-10-16T10:11:50.142Z,44.40
2022-10-16T10:14:25.061Z,44.43
2022-10-16T10:16:54.617Z,44.32
2022-10-16T10:19:26.133Z,44.20
2022-10-16T10:21:55.946Z,44.04
2022-10-16T10:24:23.804Z,43.85
2022-10-16T10:27:01.718Z,43.76
2022-10-16T10:29:49.308Z,43.83
2022-10-16T10:32:31.247Z,43.38
2022-10-16T10:35:15.570Z,43.31
2022-10-16T10:37:59.290Z,43.19
2022-10-16T10:40:42.002Z,43.29
2022-10-16T10:43:24.419Z,43.32
2022-10-16T10:45:58.153Z,43.49
2022-10-16T10:48:49.464Z,43.65
2022-10-16T10:51:27.112Z,43.71
2022-10-16T10:54:05.347Z,43.76
2022-10-16T10:56:47.103Z,43.75
2022-10-16T11:00:02.590Z,43.62
2022-10-16T11:02:38.141Z,43.63
2022-10-16T11:05:33.238Z,43.62
2022-10-16T11:08:04.328Z,43.44
2022-10-16T11:10:40.385Z,43.38
2022-10-16T11:13:20.925Z,43.19
2022-10-16T11:15:52.937Z,43.02
2022-10-16T11:18:23.634Z,43.05
2022-10-16T11:20:55.596Z,42.99
2022-10-16T11:23:27.092Z,42.79
2022-10-16T11:25:58.883Z,42.86
2022-10-16T11:28:32.166Z,42.90
2022-10-16T11:31:05.792Z,42.82
2022-10-16T11:33:41.974Z,42.88
2022-10-16T11:36:16.330Z,42.77
2022-10-16T11:38:52.046Z,42.70
2022-10-16T11:41:26.818Z,42.80
2022-10-16T11:44:06.236Z,43.14
2022-10-16T11:46:58.331Z,42.69
2022-10-16T11:49:32.903Z,42.77
2022-10-16T11:54:49.672Z,42.52
2022-10-16T11:57:30.209Z,42.35
2022-10-16T12:00:02.821Z,42.62
2022-10-16T12:02:53.058Z,42.52
2022-10-16T12:05:27.133Z,42.47
2022-10-16T12:08:06.236Z,42.29
2022-10-16T12:13:30.157Z,42.37
2022-10-16T12:16:21.342Z,42.20
2022-10-16T12:18:51.094Z,42.14
2022-10-16T12:21:20.293Z,42.15
2022-10-16T12:23:52.993Z,41.96
2022-10-16T12:26:28.817Z,41.84
2022-10-16T12:28:57.901Z,41.87
2022-10-16T12:31:54.567Z,41.89
2022-10-16T12:34:32.005Z,41.88
2022-10-16T12:37:12.218Z,41.78
2022-10-16T12:39:40.642Z,41.85
2022-10-16T12:42:23.671Z,41.68
2022-10-16T12:44:52.049Z,42.11
2022-10-16T12:47:25.685Z,41.70
2022-10-16T12:49:56.596Z,41.63
2022-10-16T12:52:38.097Z,41.86
2022-10-16T12:55:08.311Z,41.92
2022-10-16T12:57:48.572Z,42.13
2022-10-16T13:00:27.400Z,42.04
2022-10-16T13:03:26.829Z,42.22
2022-10-16T13:06:10.113Z,42.12
2022-10-16T13:08:56.443Z,42.36
2022-10-16T13:11:39.176Z,42.26
2022-10-16T13:14:22.775Z,42.66
2022-10-16T13:16:59.866Z,42.79
2022-10-16T13:19:36.548Z,42.56
2022-10-16T13:22:16.996Z,42.80
2022-10-16T13:24:57.762Z,42.68
2022-10-16T13:27:36.497Z,42.79
2022-10-16T13:30:14.325Z,42.78
2022-10-16T13:32:42.666Z,43.03
2022-10-16T13:35:22.078Z,43.01
2022-10-16T13:37:51.802Z,42.78
2022-10-16T13:40:25.981Z,42.79
2022-10-16T13:42:55.274Z,42.90
2022-10-16T13:45:26.176Z,42.92
2022-10-16T13:48:04.315Z,42.79
2022-10-16T13:50:32.221Z,42.79
2022-10-16T13:53:08.737Z,43.21
2022-10-16T13:55:36.685Z,43.10
2022-10-16T13:58:09.747Z,43.51
2022-10-16T14:03:09.936Z,43.81
2022-10-16T14:05:37.874Z,43.60
2022-10-16T14:08:06.710Z,43.69
2022-10-16T14:10:36.068Z,43.93
2022-10-16T14:13:07.289Z,43.82
2022-10-16T14:15:38.904Z,43.77
2022-10-16T14:18:07.199Z,43.73
2022-10-16T14:20:36.488Z,44.05
2022-10-16T14:23:06.810Z,43.81
2022-10-16T14:25:36.205Z,44.10
2022-10-16T14:28:06.843Z,44.06
2022-10-16T14:30:37.209Z,44.11
2022-10-16T14:33:06.832Z,44.06
2022-10-16T14:35:36.696Z,43.95
2022-10-16T14:38:07.149Z,44.02
2022-10-16T14:40:39.044Z,44.00
2022-10-16T14:43:07.556Z,44.15
2022-10-16T14:45:37.616Z,44.29
2022-10-16T14:48:08.406Z,44.04
2022-10-16T14:50:36.347Z,44.31
2022-10-16T14:53:04.269Z,44.39
2022-10-16T14:55:32.201Z,44.11
2022-10-16T14:58:01.603Z,44.39
2022-10-16T15:00:29.584Z,44.27
2022-10-16T15:02:57.604Z,44.83
2022-10-16T15:05:27.907Z,45.18
2022-10-16T15:07:56.918Z,45.49
2022-10-16T15:10:26.543Z,45.48
2022-10-16T15:12:54.624Z,45.36
2022-10-16T15:15:44.033Z,45.41
2022-10-16T15:18:12.677Z,45.61
2022-10-16T15:20:41.593Z,45.73
2022-10-16T15:23:16.327Z,45.50
2022-10-16T15:25:46.452Z,45.32
2022-10-16T15:28:15.865Z,45.16
2022-10-16T15:30:46.547Z,45.04
2022-10-16T15:33:17.228Z,44.75
2022-10-16T15:35:48.006Z,44.91
2022-10-16T15:38:17.008Z,44.72
2022-10-16T15:40:45.104Z,44.44
2022-10-16T15:43:13.041Z,44.22
2022-10-16T15:45:41.169Z,44.38
2022-10-16T15:48:13.353Z,44.03
2022-10-16T15:53:16.240Z,44.02
2022-10-16T15:55:44.133Z,43.66
2022-10-16T15:58:12.063Z,43.89
2022-10-16T16:00:39.980Z,43.57
2022-10-16T16:03:08.048Z,43.52
2022-10-16T16:05:45.531Z,43.61
2022-10-16T16:08:14.524Z,43.43
2022-10-16T16:10:42.450Z,43.37
2022-10-16T16:13:10.382Z,43.31
2022-10-16T16:15:41.352Z,43.14
2022-10-16T16:18:10.699Z,43.29
2022-10-16T16:20:40.199Z,43.16
2022-10-16T16:23:08.123Z,43.11
2022-10-16T16:25:36.074Z,43.06
2022-10-16T16:28:04.067Z,42.95
2022-10-16T16:30:31.923Z,43.18
2022-10-16T16:32:59.832Z,42.67
2022-10-16T16:35:27.696Z,42.69
2022-10-16T16:37:57.019Z,42.95
2022-10-16T16:40:24.898Z,42.62
2022-10-16T16:42:52.809Z,42.55
2022-10-16T16:45:20.793Z,42.47
2022-10-16T16:47:48.851Z,42.56
2022-10-16T16:50:17.071Z,42.40
2022-10-16T16:52:45.072Z,42.21
2022-10-16T16:55:14.372Z,41.95
2022-10-16T16:57:42.386Z,41.98
2022-10-16T17:00:11.553Z,41.87
2022-10-16T17:02:44.129Z,41.77
2022-10-16T17:05:12.772Z,41.76
2022-10-16T17:07:41.831Z,41.68
2022-10-16T17:10:10.172Z,41.74
2022-10-16T17:12:39.890Z,41.65
2022-10-16T17:15:09.045Z,41.46
2022-10-16T17:17:37.043Z,41.38
2022-10-16T17:20:05.350Z,41.25
2022-10-16T17:22:33.683Z,41.32
2022-10-16T17:25:04.042Z,41.20
2022-10-16T17:27:32.044Z,41.28
2022-10-16T17:30:01.301Z,40.96
2022-10-16T17:32:29.685Z,40.95
2022-10-16T17:34:58.187Z,41.14
2022-10-16T17:37:26.241Z,41.02
2022-10-16T17:39:54.816Z,40.86
2022-10-16T17:42:23.063Z,40.82
2022-10-16T17:44:51.241Z,40.99
2022-10-16T17:47:20.618Z,40.62
2022-10-16T17:49:49.552Z,40.82
2022-10-16T17:52:18.386Z,40.83
2022-10-16T17:54:47.869Z,40.63
2022-10-16T17:57:16.140Z,40.62
2022-10-16T17:59:44.255Z,40.35
2022-10-16T18:02:13.168Z,40.62
2022-10-16T18:04:43.389Z,40.38
2022-10-16T18:07:12.909Z,40.12
2022-10-16T18:10:09.866Z,40.17
2022-10-16T18:12:31.405Z,40.24
2022-10-16T18:14:59.777Z,40.21
2022-10-16T18:17:30.010Z,40.24
2022-10-16T18:20:00.649Z,40.19
2022-10-16T18:22:32.295Z,40.12
2022-10-16T18:25:06.356Z,39.82
2022-10-16T18:27:35.803Z,39.99
2022-10-16T18:30:04.144Z,40.10
2022-10-16T18:32:34.564Z,39.78
2022-10-16T18:35:04.008Z,39.84
2022-10-16T18:37:36.549Z,39.87
2022-10-16T18:40:07.885Z,39.96
2022-10-16T18:42:37.977Z,39.84
2022-10-16T18:45:09.117Z,40.01
2022-10-16T18:47:37.242Z,39.80
2022-10-16T18:50:11.147Z,39.83
2022-10-16T18:52:40.580Z,39.79
2022-10-16T18:55:12.582Z,39.93
2022-10-16T18:57:41.412Z,39.79
2022-10-16T19:00:13.734Z,39.84
2022-10-16T19:02:42.703Z,39.97
2022-10-16T19:05:15.612Z,39.76
2022-10-16T19:07:47.423Z,39.86
2022-10-16T19:10:18.109Z,39.92
2022-10-16T19:12:46.533Z,39.76
2022-10-16T19:15:15.241Z,39.59
2022-10-16T19:17:43.484Z,39.81
2022-10-16T19:20:13.731Z,39.88
2022-10-16T19:22:54.191Z,39.68
2022-10-16T19:25:23.010Z,39.76
2022-10-16T19:27:51.738Z,39.55
2022-10-16T19:30:20.656Z,39.56
2022-10-16T19:32:49.735Z,39.56
2022-10-16T19:35:19.829Z,39.60
2022-10-16T19:37:52.421Z,39.71
2022-10-16T19:40:20.995Z,39.47
2022-10-16T19:42:49.425Z,39.36
2022-10-16T19:45:18.187Z,39.31
2022-10-16T19:47:47.382Z,39.38
2022-10-16T19:50:16.557Z,39.33
2022-10-16T19:52:46.222Z,39.28
2022-10-16T19:55:14.874Z,39.25
2022-10-16T19:57:42.841Z,39.10
2022-10-16T20:00:12.106Z,39.33
2022-10-16T20:02:40.194Z,39.21
2022-10-16T20:05:09.000Z,39.30
2022-10-16T20:07:37.373Z,39.10
2022-10-16T20:10:08.169Z,39.12
2022-10-16T20:12:36.076Z,39.14
2022-10-16T20:15:05.023Z,39.05
2022-10-16T20:17:32.967Z,38.99
2022-10-16T20:20:02.829Z,39.14
2022-10-16T20:22:30.808Z,38.98
2022-10-16T20:24:58.983Z,39.02
2022-10-16T20:27:29.556Z,39.07
2022-10-16T20:29:57.933Z,38.87
2022-10-16T20:32:25.945Z,38.81
2022-10-16T20:34:53.953Z,38.76
2022-10-16T20:37:21.965Z,38.63
2022-10-16T20:39:49.929Z,38.77
2022-10-16T20:42:17.825Z,38.59
2022-10-16T20:44:49.270Z,38.53
2022-10-16T20:47:19.223Z,38.42
2022-10-16T20:49:47.084Z,38.33
2022-10-16T20:52:15.024Z,38.56
2022-10-16T20:54:46.041Z,38.41
2022-10-16T20:57:14.305Z,38.30
2022-10-16T20:59:42.276Z,38.28
2022-10-16T21:02:14.196Z,38.09
2022-10-16T21:04:42.481Z,38.12
2022-10-16T21:07:10.820Z,38.06
2022-10-16T21:09:39.442Z,37.83
2022-10-16T21:12:07.377Z,37.84
2022-10-16T21:14:42.111Z,37.75
2022-10-16T21:17:11.846Z,37.65
2022-10-16T21:19:39.724Z,37.57
2022-10-16T21:22:07.656Z,37.39
2022-10-16T21:24:36.481Z,37.70
2022-10-16T21:27:04.703Z,37.59
2022-10-16T21:29:32.868Z,37.29
2022-10-16T21:32:00.781Z,37.50
2022-10-16T21:34:30.273Z,37.39
2022-10-16T21:36:58.153Z,37.42
2022-10-16T21:39:26.084Z,37.39
2022-10-16T21:41:54.009Z,37.45
2022-10-16T21:44:21.925Z,37.29
2022-10-16T21:46:51.737Z,37.17
2022-10-16T21:49:20.565Z,37.23
2022-10-16T21:51:51.765Z,37.07
2022-10-16T21:54:22.333Z,37.25
2022-10-16T21:56:50.869Z,37.46
2022-10-16T21:59:18.861Z,37.27
2022-10-16T22:01:46.948Z,37.20
2022-10-16T22:04:17.161Z,37.36
2022-10-16T22:06:45.136Z,37.47
2022-10-16T22:09:16.010Z,37.53
2022-10-16T22:11:45.679Z,37.47
2022-10-16T22:14:16.752Z,37.30
2022-10-16T22:16:45.376Z,37.56
2022-10-16T22:19:14.118Z,37.54
2022-10-16T22:21:44.199Z,37.41
2022-10-16T22:24:12.105Z,37.50
2022-10-16T22:26:41.784Z,37.58
2022-10-16T22:29:12.141Z,37.53
2022-10-16T22:31:40.388Z,37.44
2022-10-16T22:34:08.351Z,37.52
2022-10-16T22:36:36.636Z,37.33
2022-10-16T22:39:05.665Z,37.52
2022-10-16T22:41:33.604Z,37.44
2022-10-16T22:44:02.848Z,37.45
2022-10-16T22:46:32.124Z,37.51
2022-10-16T22:49:00.099Z,37.57
2022-10-16T22:51:29.869Z,37.57
2022-10-16T22:53:59.504Z,37.72
2022-10-16T22:56:27.770Z,37.77
2022-10-16T22:58:55.824Z,37.89
2022-10-16T23:01:28.130Z,37.70
2022-10-16T23:03:56.206Z,37.81
2022-10-16T23:06:24.157Z,37.84
2022-10-16T23:08:53.586Z,37.63
2022-10-16T23:11:21.622Z,37.69
2022-10-16T23:13:49.662Z,37.73
2022-10-16T23:16:20.801Z,37.73
2022-10-16T23:18:51.020Z,37.50
2022-10-16T23:21:21.024Z,37.76
2022-10-16T23:23:49.519Z,37.94
2022-10-16T23:26:19.731Z,37.69
2022-10-16T23:28:47.933Z,37.66
2022-10-16T23:31:16.988Z,37.46
2022-10-16T23:33:45.933Z,37.59
2022-10-16T23:36:18.525Z,37.52
2022-10-16T23:38:47.106Z,37.43
2022-10-16T23:41:16.012Z,37.58
2022-10-16T23:43:43.990Z,37.44
2022-10-16T23:46:13.336Z,37.38
2022-10-16T23:48:42.174Z,37.37
2022-10-16T23:51:11.029Z,37.48
2022-10-16T23:53:40.495Z,37.48
2022-10-16T23:56:08.769Z,37.70
2022-10-16T23:58:36.741Z,37.56
